Time;durP1;ratioP1;P1;durP2;ratioP2;P2;SDS_P1;SDS_P2;PMS_P1;PMS_P2;Temp;Humidity;BMP_temperature;BMP_pressure;BME280_temperature;BME280_humidity;BME280_pressure;Samples;Min_cycle;Max_cycle;Signal;HPM_P1;HPM_P2
2023/12/19 07:49:00;;;;;;;8.63;4.20;;;;;;;;;;2101504;27;20556;-59
2023/12/19 07:50:02;;;;;;;9.65;4.38;;;;;;;;;;2094742;28;20196;-59
2023/12/19 07:51:07;;;;;;;8.88;3.95;;;;;;;;;;2088590;28;20187;-60
2023/12/19 07:52:09;;;;;;;9.90;4.82;;;;;;;;;;2079651;28;20200;-59
2023/12/19 07:53:10;;;;;;;8.85;4.38;;;;;;;;;;2079952;28;20201;-59
2023/12/19 07:54:11;;;;;;;11.80;4.50;;;;;;;;;;2078446;28;20590;-60
2023/12/19 07:55:13;;;;;;;9.45;3.95;;;;;;;;;;2081756;28;20188;-60
2023/12/19 07:56:14;;;;;;;7.72;4.22;;;;;;;;;;2077409;28;20217;-60
2023/12/19 07:57:16;;;;;;;7.60;3.88;;;;;;;;;;2070116;28;20190;-60
2023/12/19 07:58:17;;;;;;;9.00;3.70;;;;;;;;;;2067564;28;20202;-60
2023/12/19 07:59:18;;;;;;;8.73;3.55;;;;;;;;;;2069103;28;20190;-60
2023/12/19 08:00:20;;;;;;;8.18;4.15;;;;;;;;;;2069342;28;20228;-60
2023/12/19 08:01:21;;;;;;;15.65;3.90;;;;;;;;;;2071704;28;20631;-60
2023/12/19 08:02:23;;;;;;;12.98;4.65;;;;;;;;;;2073828;28;20552;-60
2023/12/19 08:03:25;;;;;;;6.00;3.70;;;;;;;;;;2073385;28;20230;-61
2023/12/19 08:04:26;;;;;;;10.05;4.18;;;;;;;;;;2070122;28;20205;-61
2023/12/19 08:05:28;;;;;;;6.63;4.15;;;;;;;;;;2068810;28;20202;-61
2023/12/19 08:06:29;;;;;;;10.27;3.88;;;;;;;;;;2063694;28;20309;-60
2023/12/19 08:07:30;;;;;;;12.00;5.28;;;;;;;;;;2071791;28;20202;-60
2023/12/19 08:08:32;;;;;;;8.82;4.97;;;;;;;;;;2070276;28;20301;-60
2023/12/19 08:09:34;;;;;;;13.65;5.18;;;;;;;;;;2067663;28;20281;-60
2023/12/19 08:10:35;;;;;;;8.02;4.25;;;;;;;;;;2068619;28;20196;-60
2023/12/19 08:11:37;;;;;;;12.23;5.93;;;;;;;;;;2066626;28;20220;-60
2023/12/19 08:12:38;;;;;;;9.90;5.85;;;;;;;;;;2075477;28;20193;-60
2023/12/19 08:13:40;;;;;;;8.13;4.80;;;;;;;;;;2073615;28;20197;-60
2023/12/19 08:14:41;;;;;;;10.25;5.47;;;;;;;;;;2074581;28;20205;-60
2023/12/19 08:15:43;;;;;;;11.60;5.35;;;;;;;;;;2071398;28;20616;-60
2023/12/19 08:16:45;;;;;;;8.95;5.00;;;;;;;;;;2071463;28;20295;-60
2023/12/19 08:17:47;;;;;;;16.27;5.75;;;;;;;;;;2071529;28;20205;-60
2023/12/19 08:18:50;;;;;;;9.45;5.15;;;;;;;;;;2074612;28;20648;-60
2023/12/19 08:19:53;;;;;;;11.50;5.30;;;;;;;;;;2072999;28;20652;-60
2023/12/19 08:20:54;;;;;;;16.13;5.97;;;;;;;;;;2072500;28;20200;-60
2023/12/19 08:21:58;;;;;;;13.25;6.53;;;;;;;;;;2072008;28;20210;-59
2023/12/19 08:22:59;;;;;;;11.13;6.22;;;;;;;;;;2068986;28;20225;-60
2023/12/19 08:24:03;;;;;;;8.25;5.60;;;;;;;;;;2067419;28;20202;-60
2023/12/19 08:25:04;;;;;;;14.70;6.25;;;;;;;;;;2070598;28;20561;-60
2023/12/19 08:26:08;;;;;;;11.40;6.30;;;;;;;;;;2070882;28;20728;-60
2023/12/19 08:27:10;;;;;;;11.45;6.72;;;;;;;;;;2068686;28;20197;-59
2023/12/19 08:28:11;;;;;;;9.85;6.10;;;;;;;;;;2068860;28;20229;-59
2023/12/19 08:29:13;;;;;;;11.48;6.45;;;;;;;;;;2070774;28;20896;-59
2023/12/19 08:30:15;;;;;;;14.00;6.97;;;;;;;;;;2069681;28;20206;-60
2023/12/19 08:31:16;;;;;;;13.73;6.32;;;;;;;;;;2070165;28;20864;-60
2023/12/19 08:32:18;;;;;;;11.52;6.72;;;;;;;;;;2068039;28;20205;-60
2023/12/19 08:33:19;;;;;;;10.90;6.82;;;;;;;;;;2069782;28;20198;-60
2023/12/19 08:34:23;;;;;;;10.90;6.28;;;;;;;;;;2069499;28;20229;-60
2023/12/19 08:35:24;;;;;;;10.63;6.10;;;;;;;;;;2070566;28;20197;-60
2023/12/19 08:36:26;;;;;;;10.50;6.72;;;;;;;;;;2067616;28;20222;-60
2023/12/19 08:37:36;;;;;;;9.55;6.13;;;;;;;;;;2071824;28;20236;-60
2023/12/19 08:38:38;;;;;;;11.98;6.88;;;;;;;;;;2070352;28;20243;-60
2023/12/19 08:39:39;;;;;;;12.90;7.30;;;;;;;;;;2072364;28;20205;-61
2023/12/19 08:40:40;;;;;;;8.23;5.90;;;;;;;;;;2075562;28;20312;-60
2023/12/19 08:41:48;;;;;;;10.45;6.60;;;;;;;;;;2073815;28;20740;-60
2023/12/19 08:42:49;;;;;;;11.52;6.80;;;;;;;;;;2069937;28;20198;-60
2023/12/19 08:43:51;;;;;;;11.73;6.13;;;;;;;;;;2072375;28;20205;-60
2023/12/19 08:44:54;;;;;;;12.38;6.90;;;;;;;;;;2071787;28;20272;-60
2023/12/19 08:45:56;;;;;;;11.80;6.32;;;;;;;;;;2068139;28;20190;-60
2023/12/19 08:46:57;;;;;;;11.57;6.50;;;;;;;;;;2068619;28;20290;-60
2023/12/19 08:47:58;;;;;;;10.32;6.50;;;;;;;;;;2072963;28;20209;-61
2023/12/19 08:49:02;;;;;;;10.05;5.32;;;;;;;;;;2072707;28;20297;-60
2023/12/19 08:50:07;;;;;;;13.05;6.45;;;;;;;;;;2071914;28;20194;-61
2023/12/19 08:51:11;;;;;;;12.73;6.97;;;;;;;;;;2066416;28;20217;-61
2023/12/19 08:52:12;;;;;;;11.05;7.30;;;;;;;;;;2066892;28;20189;-61
2023/12/19 08:53:14;;;;;;;10.02;6.40;;;;;;;;;;2070596;28;20288;-60
2023/12/19 08:54:15;;;;;;;15.95;6.85;;;;;;;;;;2072247;28;20606;-61
2023/12/19 08:55:16;;;;;;;11.25;7.07;;;;;;;;;;2073189;28;20198;-61
2023/12/19 08:56:18;;;;;;;11.20;7.18;;;;;;;;;;2071399;28;20705;-61
2023/12/19 08:57:19;;;;;;;12.00;7.28;;;;;;;;;;2069706;28;20241;-61
2023/12/19 08:58:21;;;;;;;9.52;6.53;;;;;;;;;;2069438;28;20194;-61
2023/12/19 08:59:22;;;;;;;12.18;6.35;;;;;;;;;;2069102;28;20289;-61
2023/12/19 09:00:23;;;;;;;11.13;6.97;;;;;;;;;;2064738;28;20194;-61
2023/12/19 09:01:26;;;;;;;8.48;6.10;;;;;;;;;;2062974;28;20252;-61
2023/12/19 09:02:27;;;;;;;10.75;6.90;;;;;;;;;;2067670;28;20194;-61
2023/12/19 09:03:29;;;;;;;11.63;6.70;;;;;;;;;;2069671;28;20263;-69
2023/12/19 09:04:30;;;;;;;13.65;6.70;;;;;;;;;;2068660;28;20195;-69
2023/12/19 09:05:32;;;;;;;9.52;6.10;;;;;;;;;;2066981;28;20205;-69
2023/12/19 09:06:33;;;;;;;15.10;6.85;;;;;;;;;;2064839;28;20653;-69
2023/12/19 09:07:34;;;;;;;15.00;7.78;;;;;;;;;;2070313;28;20277;-69
2023/12/19 09:08:36;;;;;;;12.05;7.40;;;;;;;;;;2070646;28;20195;-70
2023/12/19 09:09:37;;;;;;;12.70;7.35;;;;;;;;;;2069243;28;20265;-70
2023/12/19 09:10:39;;;;;;;11.70;6.53;;;;;;;;;;2069067;28;20195;-61
2023/12/19 09:11:40;;;;;;;11.90;7.25;;;;;;;;;;2060480;28;20234;-61
2023/12/19 09:12:41;;;;;;;9.20;6.05;;;;;;;;;;2064761;28;20201;-61
2023/12/19 09:13:44;;;;;;;12.25;6.45;;;;;;;;;;2065670;28;20605;-61
2023/12/19 09:14:45;;;;;;;10.85;6.85;;;;;;;;;;2065091;28;20210;-62
2023/12/19 09:15:47;;;;;;;13.60;7.65;;;;;;;;;;2065290;28;20194;-60
2023/12/19 09:16:49;;;;;;;10.90;7.25;;;;;;;;;;2065634;28;20225;-61
2023/12/19 09:17:51;;;;;;;9.80;6.20;;;;;;;;;;2063381;28;20198;-61
2023/12/19 09:18:52;;;;;;;10.90;7.00;;;;;;;;;;2066095;28;20276;-61
2023/12/19 09:19:55;;;;;;;11.57;6.90;;;;;;;;;;2073581;28;20243;-61
2023/12/19 09:20:56;;;;;;;10.98;7.10;;;;;;;;;;2067967;28;20201;-61
2023/12/19 09:21:57;;;;;;;12.23;6.70;;;;;;;;;;2065779;28;20195;-61
2023/12/19 09:22:59;;;;;;;9.40;6.45;;;;;;;;;;2064798;28;20415;-61
2023/12/19 09:24:00;;;;;;;11.35;6.60;;;;;;;;;;2066231;28;20201;-61
2023/12/19 09:25:02;;;;;;;18.42;6.85;;;;;;;;;;2066663;28;20581;-61
2023/12/19 09:26:03;;;;;;;14.30;7.55;;;;;;;;;;2065884;28;20207;-61
2023/12/19 09:27:05;;;;;;;10.90;7.35;;;;;;;;;;2062603;28;20199;-62
2023/12/19 09:28:06;;;;;;;9.80;7.22;;;;;;;;;;2066741;28;20231;-61
2023/12/19 09:29:07;;;;;;;12.30;7.07;;;;;;;;;;2064889;28;20208;-61
2023/12/19 09:30:09;;;;;;;9.85;7.00;;;;;;;;;;2063961;28;20429;-61
2023/12/19 09:31:11;;;;;;;14.57;7.38;;;;;;;;;;2067977;28;20225;-61
2023/12/19 09:32:15;;;;;;;13.77;8.10;;;;;;;;;;2066905;28;20841;-61
2023/12/19 09:33:17;;;;;;;17.45;7.90;;;;;;;;;;2063886;28;20194;-61
2023/12/19 09:34:21;;;;;;;21.45;7.43;;;;;;;;;;2062387;28;20288;-60
2023/12/19 09:35:22;;;;;;;10.68;6.70;;;;;;;;;;2063954;28;20686;-60
2023/12/19 09:36:27;;;;;;;17.45;8.30;;;;;;;;;;2061466;28;20226;-61
2023/12/19 09:37:28;;;;;;;13.73;8.38;;;;;;;;;;2063998;28;20198;-60
2023/12/19 09:38:30;;;;;;;12.88;9.38;;;;;;;;;;2063481;28;20206;-61
2023/12/19 09:39:32;;;;;;;13.48;8.30;;;;;;;;;;2064514;28;20198;-61
2023/12/19 09:40:33;;;;;;;13.27;7.85;;;;;;;;;;2068568;28;20285;-60
2023/12/19 09:41:35;;;;;;;12.32;7.85;;;;;;;;;;2064203;28;20906;-61
2023/12/19 09:42:36;;;;;;;10.57;7.13;;;;;;;;;;2066263;28;20209;-60
2023/12/19 09:43:41;;;;;;;12.50;8.25;;;;;;;;;;2065412;28;20203;-60
2023/12/19 09:44:42;;;;;;;12.07;8.57;;;;;;;;;;2065325;28;20251;-60
2023/12/19 09:45:45;;;;;;;17.05;8.48;;;;;;;;;;2068206;28;20291;-60
2023/12/19 09:46:48;;;;;;;14.90;9.20;;;;;;;;;;2065788;28;20261;-60
2023/12/19 09:47:58;;;;;;;12.50;7.97;;;;;;;;;;2064526;28;20198;-64
2023/12/19 09:49:03;;;;;;;17.13;8.50;;;;;;;;;;2063726;28;20213;-60
2023/12/19 09:50:08;;;;;;;16.27;8.23;;;;;;;;;;2065792;28;20297;-60
2023/12/19 09:51:15;;;;;;;15.82;8.98;;;;;;;;;;2061676;28;20206;-60
2023/12/19 09:52:17;;;;;;;15.18;9.20;;;;;;;;;;2066970;28;20201;-60
2023/12/19 09:53:18;;;;;;;12.35;8.02;;;;;;;;;;2064189;28;20226;-60
2023/12/19 09:54:21;;;;;;;14.88;8.85;;;;;;;;;;2064979;28;20861;-61
2023/12/19 09:55:27;;;;;;;13.65;8.73;;;;;;;;;;2065378;28;20248;-58
2023/12/19 09:56:28;;;;;;;17.05;10.00;;;;;;;;;;2064881;28;20308;-58
2023/12/19 09:57:33;;;;;;;16.30;9.57;;;;;;;;;;2063806;28;20202;-58
2023/12/19 09:58:35;;;;;;;19.90;10.18;;;;;;;;;;2066037;28;20277;-59
2023/12/19 09:59:36;;;;;;;13.60;9.20;;;;;;;;;;2066085;28;20560;-59
2023/12/19 10:00:45;;;;;;;12.43;8.70;;;;;;;;;;2064892;28;20197;-59
2023/12/19 10:01:47;;;;;;;14.27;9.60;;;;;;;;;;2064333;28;20234;-59
2023/12/19 10:02:49;;;;;;;19.08;10.25;;;;;;;;;;2068308;28;20243;-58
2023/12/19 10:03:55;;;;;;;14.00;8.77;;;;;;;;;;2068955;28;20228;-59
2023/12/19 10:04:57;;;;;;;16.42;9.80;;;;;;;;;;2064675;28;20233;-59
2023/12/19 10:06:00;;;;;;;15.68;10.02;;;;;;;;;;2063142;28;20208;-58
2023/12/19 10:07:02;;;;;;;17.27;8.95;;;;;;;;;;2067069;28;20194;-58
2023/12/19 10:08:04;;;;;;;15.50;9.85;;;;;;;;;;2065094;28;20198;-58
2023/12/19 10:09:06;;;;;;;14.48;9.25;;;;;;;;;;2067669;28;20451;-58
2023/12/19 10:10:07;;;;;;;17.45;9.68;;;;;;;;;;2065661;28;20214;-58
2023/12/19 10:11:14;;;;;;;15.98;9.75;;;;;;;;;;2064903;28;20206;-58
2023/12/19 10:12:16;;;;;;;15.60;9.85;;;;;;;;;;2063314;28;20289;-58
2023/12/19 10:13:28;;;;;;;17.35;8.77;;;;;;;;;;2064343;28;20199;-59
2023/12/19 10:14:29;;;;;;;18.70;10.75;;;;;;;;;;2066901;28;20626;-58
2023/12/19 10:15:30;;;;;;;22.63;11.85;;;;;;;;;;2066744;28;20226;-59
2023/12/19 10:16:37;;;;;;;17.75;9.63;;;;;;;;;;2062784;28;20219;-59
2023/12/19 10:17:38;;;;;;;15.93;10.02;;;;;;;;;;2066334;28;20190;-58
2023/12/19 10:18:44;;;;;;;17.70;10.77;;;;;;;;;;2065022;28;20194;-58
2023/12/19 10:19:48;;;;;;;19.17;10.68;;;;;;;;;;2068286;28;20218;-58
2023/12/19 10:21:28;;;;;;;16.77;10.50;;;;;;;;;;2065863;28;20198;-62
2023/12/19 10:22:30;;;;;;;16.63;10.50;;;;;;;;;;2041909;29;20200;-62
2023/12/19 10:23:33;;;;;;;19.52;11.35;;;;;;;;;;2043112;29;20200;-62
2023/12/19 10:24:35;;;;;;;18.02;11.02;;;;;;;;;;2041604;29;20208;-62
2023/12/19 10:25:36;;;;;;;19.08;11.13;;;;;;;;;;2042514;29;20213;-62
2023/12/19 10:26:57;;;;;;;18.73;11.40;;;;;;;;;;2040161;29;20307;-63
2023/12/19 10:28:07;;;;;;;20.92;11.32;;;;;;;;;;2040608;29;20693;-63
2023/12/19 10:29:11;;;;;;;20.98;11.57;;;;;;;;;;2042597;29;20203;-63
2023/12/19 10:30:17;;;;;;;28.17;12.30;;;;;;;;;;2042929;29;20274;-62
2023/12/19 10:31:19;;;;;;;20.98;12.10;;;;;;;;;;2039379;29;20331;-62
2023/12/19 10:32:21;;;;;;;20.05;11.50;;;;;;;;;;2040928;29;20291;-62
2023/12/19 10:33:23;;;;;;;18.23;11.25;;;;;;;;;;2039563;29;20302;-63
2023/12/19 10:34:24;;;;;;;18.23;11.10;;;;;;;;;;2042113;29;20220;-63
2023/12/19 10:35:34;;;;;;;20.02;11.68;;;;;;;;;;2041751;29;20246;-63
2023/12/19 10:36:36;;;;;;;19.13;10.90;;;;;;;;;;2031333;29;20300;-63
2023/12/19 10:37:38;;;;;;;18.10;11.90;;;;;;;;;;2035200;29;20206;-63
2023/12/19 10:38:46;;;;;;;19.70;11.13;;;;;;;;;;2040536;29;20200;-62
2023/12/19 10:39:47;;;;;;;19.30;11.35;;;;;;;;;;2039212;29;20371;-62
2023/12/19 10:40:59;;;;;;;23.13;12.00;;;;;;;;;;2040594;29;20606;-62
2023/12/19 10:42:04;;;;;;;20.70;11.50;;;;;;;;;;2040336;29;20278;-62
2023/12/19 10:43:06;;;;;;;19.70;11.52;;;;;;;;;;2041718;29;20566;-62
2023/12/19 10:44:08;;;;;;;21.33;10.75;;;;;;;;;;2040735;29;20193;-59
2023/12/19 10:45:10;;;;;;;22.73;11.00;;;;;;;;;;2042069;29;20283;-58
2023/12/19 10:46:13;;;;;;;18.63;12.00;;;;;;;;;;2039838;29;20292;-58
2023/12/19 10:47:16;;;;;;;15.60;9.50;;;;;;;;;;2042563;29;20719;-58
2023/12/19 10:48:17;;;;;;;18.33;10.80;;;;;;;;;;2043197;29;20241;-58
2023/12/19 10:49:18;;;;;;;17.45;10.48;;;;;;;;;;2041848;29;20283;-58
2023/12/19 10:50:20;;;;;;;19.83;10.50;;;;;;;;;;2041105;29;20220;-60
2023/12/19 10:51:30;;;;;;;16.40;9.80;;;;;;;;;;2041172;29;20368;-58
2023/12/19 10:52:32;;;;;;;16.77;10.32;;;;;;;;;;2039152;29;20208;-59
2023/12/19 10:53:35;;;;;;;16.73;10.77;;;;;;;;;;2040675;29;20197;-58
2023/12/19 10:54:36;;;;;;;19.02;11.40;;;;;;;;;;2039461;29;20192;-59
2023/12/19 10:55:44;;;;;;;15.70;9.48;;;;;;;;;;2041029;29;20232;-58
2023/12/19 10:56:52;;;;;;;18.10;10.68;;;;;;;;;;2039732;29;20228;-58
2023/12/19 10:57:53;;;;;;;18.77;11.13;;;;;;;;;;2041594;29;20196;-58
2023/12/19 10:59:00;;;;;;;15.10;9.52;;;;;;;;;;2054248;28;20193;-58
2023/12/19 11:00:09;;;;;;;15.90;9.82;;;;;;;;;;2073265;28;20288;-59
2023/12/19 11:01:11;;;;;;;20.45;10.32;;;;;;;;;;2070141;28;20260;-58
2023/12/19 11:02:19;;;;;;;16.38;9.20;;;;;;;;;;2068524;28;20348;-58
2023/12/19 11:03:53;;;;;;;13.55;8.45;;;;;;;;;;2069153;28;20201;-59
2023/12/19 11:05:04;;;;;;;13.80;8.77;;;;;;;;;;2060791;28;20339;-58
2023/12/19 11:06:07;;;;;;;16.55;9.27;;;;;;;;;;2058836;28;20230;-58
2023/12/19 11:07:11;;;;;;;13.52;8.80;;;;;;;;;;2060128;28;20195;-58
2023/12/19 11:08:15;;;;;;;13.15;8.00;;;;;;;;;;2059394;28;20198;-59
2023/12/19 11:09:21;;;;;;;14.30;8.05;;;;;;;;;;2061000;28;20622;-58
2023/12/19 11:10:24;;;;;;;15.90;9.13;;;;;;;;;;2057641;28;20262;-62
2023/12/19 11:11:31;;;;;;;14.10;8.98;;;;;;;;;;2059888;28;20222;-62
2023/12/19 11:12:33;;;;;;;17.85;9.43;;;;;;;;;;2061020;28;20191;-62
2023/12/19 11:13:35;;;;;;;13.90;8.20;;;;;;;;;;2059879;28;20213;-62
2023/12/19 11:14:37;;;;;;;15.63;9.48;;;;;;;;;;2062107;28;20289;-62
2023/12/19 11:15:42;;;;;;;13.63;7.93;;;;;;;;;;2061992;28;20776;-62
2023/12/19 11:16:44;;;;;;;12.23;8.25;;;;;;;;;;2060875;28;20222;-63
2023/12/19 11:17:45;;;;;;;14.30;8.70;;;;;;;;;;2060863;28;20615;-63
2023/12/19 11:18:50;;;;;;;12.02;6.85;;;;;;;;;;2060228;28;20249;-63
2023/12/19 11:20:03;;;;;;;16.23;8.90;;;;;;;;;;2061944;28;20601;-62
2023/12/19 11:21:07;;;;;;;17.98;8.40;;;;;;;;;;2056045;28;20194;-63
2023/12/19 11:22:18;;;;;;;13.07;7.30;;;;;;;;;;2061940;28;20202;-59
2023/12/19 11:23:28;;;;;;;12.18;7.53;;;;;;;;;;2060818;28;20206;-59
2023/12/19 11:24:33;;;;;;;17.00;8.02;;;;;;;;;;2061541;28;20198;-59
2023/12/19 11:25:38;;;;;;;11.07;7.95;;;;;;;;;;2062186;28;20199;-59
2023/12/19 11:26:50;;;;;;;9.93;6.38;;;;;;;;;;2059200;28;20283;-60
2023/12/19 11:27:55;;;;;;;11.45;7.63;;;;;;;;;;2061806;28;20224;-59
2023/12/19 11:28:57;;;;;;;13.27;7.40;;;;;;;;;;2057594;28;20214;-59
2023/12/19 11:29:58;;;;;;;17.02;7.32;;;;;;;;;;2059827;28;20207;-59
2023/12/19 11:30:59;;;;;;;16.25;7.63;;;;;;;;;;2056826;28;20249;-60
2023/12/19 11:32:01;;;;;;;13.98;8.40;;;;;;;;;;2060922;28;20241;-59
2023/12/19 11:33:03;;;;;;;9.95;6.78;;;;;;;;;;2061526;28;20201;-60
2023/12/19 11:34:34;;;;;;;12.63;6.90;;;;;;;;;;2060365;28;20194;-59
2023/12/19 11:35:35;;;;;;;10.80;6.18;;;;;;;;;;2051228;28;20194;-59
2023/12/19 11:36:37;;;;;;;9.38;6.32;;;;;;;;;;2060832;28;20256;-59
2023/12/19 11:37:39;;;;;;;12.93;8.00;;;;;;;;;;2060362;28;20578;-59
2023/12/19 11:38:41;;;;;;;14.18;6.93;;;;;;;;;;2060503;28;20195;-59
2023/12/19 11:39:42;;;;;;;9.75;6.35;;;;;;;;;;2061574;28;20728;-59
2023/12/19 11:40:44;;;;;;;10.68;6.10;;;;;;;;;;2061434;28;20190;-59
2023/12/19 11:41:45;;;;;;;13.77;6.57;;;;;;;;;;2068568;28;20217;-59
2023/12/19 11:42:47;;;;;;;10.55;6.85;;;;;;;;;;2069569;28;20198;-59
2023/12/19 11:43:48;;;;;;;10.98;6.15;;;;;;;;;;2072532;28;20201;-58
2023/12/19 11:44:49;;;;;;;13.45;7.25;;;;;;;;;;2072861;28;20869;-59
2023/12/19 11:45:51;;;;;;;13.93;7.90;;;;;;;;;;2071867;28;20322;-59
2023/12/19 11:47:11;;;;;;;11.07;6.57;;;;;;;;;;2071203;28;20237;-59
2023/12/19 11:48:31;;;;;;;11.85;6.80;;;;;;;;;;2070592;28;20260;-59
2023/12/19 11:49:36;;;;;;;12.82;7.45;;;;;;;;;;2072680;28;20252;-59
2023/12/19 11:50:40;;;;;;;14.75;7.15;;;;;;;;;;2071957;28;20214;-59
2023/12/19 11:51:41;;;;;;;13.35;7.70;;;;;;;;;;2072662;28;20220;-58
2023/12/19 11:52:50;;;;;;;11.95;6.97;;;;;;;;;;2075287;28;20220;-59
2023/12/19 11:53:53;;;;;;;11.65;7.10;;;;;;;;;;2071272;28;20210;-58
2023/12/19 11:54:55;;;;;;;11.45;6.90;;;;;;;;;;2072652;28;20203;-59
2023/12/19 11:56:10;;;;;;;12.32;7.00;;;;;;;;;;2077990;28;20199;-59
2023/12/19 11:57:19;;;;;;;13.45;7.43;;;;;;;;;;2074199;28;20184;-58
2023/12/19 11:58:26;;;;;;;10.75;6.25;;;;;;;;;;2069291;28;20252;-58
2023/12/19 11:59:46;;;;;;;13.13;7.65;;;;;;;;;;2070260;28;20272;-58
2023/12/19 12:00:56;;;;;;;14.98;8.35;;;;;;;;;;2072811;28;20254;-58
2023/12/19 12:01:57;;;;;;;11.27;6.47;;;;;;;;;;2068682;28;20346;-59
2023/12/19 12:03:05;;;;;;;14.77;7.40;;;;;;;;;;2071689;28;20250;-58
2023/12/19 12:04:07;;;;;;;11.70;7.60;;;;;;;;;;2072792;28;20308;-58
2023/12/19 12:05:13;;;;;;;11.02;7.03;;;;;;;;;;2070994;28;20230;-58
2023/12/19 12:06:18;;;;;;;13.40;7.80;;;;;;;;;;2073226;28;20216;-58
2023/12/19 12:07:20;;;;;;;11.32;7.15;;;;;;;;;;2074770;28;20200;-59
2023/12/19 12:08:23;;;;;;;12.57;7.60;;;;;;;;;;2068960;28;20197;-58
2023/12/19 12:09:25;;;;;;;13.48;7.10;;;;;;;;;;2071159;28;20565;-58
2023/12/19 14:53:00;;;;;;;19.45;8.70;;;;;;;1.41;90.38;97104.53;2085150;28;20571;-58
2023/12/19 14:54:01;;;;;;;23.45;9.40;;;;;;;1.63;89.38;97086.47;2076738;28;20193;-58
2023/12/19 14:55:03;;;;;;;13.10;7.53;;;;;;;1.38;88.20;97108.81;2077966;28;20263;-58
2023/12/19 14:56:07;;;;;;;15.27;8.20;;;;;;;1.21;89.12;97111.41;2083338;28;20235;-58
2023/12/19 14:57:09;;;;;;;16.75;8.40;;;;;;;1.63;88.43;97105.34;2073430;28;20203;-58
2023/12/19 14:58:11;;;;;;;23.25;9.95;;;;;;;2.07;86.77;97102.63;2074723;28;20789;-58
2023/12/19 14:59:13;;;;;;;15.90;8.77;;;;;;;2.04;85.93;97093.19;2070948;28;20205;-58
